Time;durP1;ratioP1;P1;durP2;ratioP2;P2;SDS_P1;SDS_P2;PMS_P1;PMS_P2;Temp;Humidity;BMP_temperature;BMP_pressure;BME280_temperature;BME280_humidity;BME280_pressure;Samples;Min_cycle;Max_cycle;Signal;HPM_P1;HPM_P2
2023/04/21 00:00:07;;;;;;;;;;;9.30;99.90;9.60;98831.00;;;;335600;29;83312;-89
2023/04/21 00:00:18;;;;;;;;;;;9.30;99.90;9.50;98840.00;;;;335890;28;95738;-89
2023/04/21 00:00:30;;;;;;;;;;;9.30;99.90;9.40;98830.00;;;;334371;29;82514;-89
2023/04/21 00:00:46;;;;;;;;;;;9.30;99.90;9.40;98833.00;;;;334769;29;94889;-89
2023/04/21 00:01:00;;;;;;;;;;;9.30;99.90;9.50;98836.00;;;;336746;28;83377;-89
2023/04/21 00:01:12;;;;;;;;;;;9.30;99.90;9.60;98836.00;;;;336110;28;96674;-89
2023/04/21 00:01:25;;;;;;;;;;;9.30;99.90;9.60;98842.00;;;;336833;28;83414;-89
2023/04/21 00:01:38;;;;;;;;;;;9.20;99.90;9.60;98834.00;;;;336198;28;93112;-89
2023/04/21 00:01:52;;;;;;;;;;;9.20;99.90;9.60;98833.00;;;;334264;29;83407;-89
2023/04/21 00:02:04;;;;;;;;;;;9.20;99.90;9.60;98832.00;;;;334843;29;93437;-89
2023/04/21 00:02:16;;;;;;;;;;;9.30;99.90;9.60;98839.00;;;;334269;29;82361;-89
2023/04/21 00:02:28;;;;;;;;;;;9.20;99.90;9.60;98836.00;;;;332506;29;91915;-89
2023/04/21 00:02:40;;;;;;;;;;;9.30;99.90;9.60;98837.00;;;;335678;29;83340;-89
2023/04/21 00:02:52;;;;;;;;;;;9.20;99.90;9.60;98835.00;;;;336000;28;94469;-89
2023/04/21 00:03:04;;;;;;;;;;;9.20;99.90;9.60;98836.00;;;;335352;29;82635;-89
2023/04/21 00:03:19;;;;;;;;;;;9.20;99.90;9.60;98830.00;;;;332347;29;92794;-89
2023/04/21 00:03:32;;;;;;;;;;;9.20;99.90;9.60;98839.00;;;;334285;29;83471;-90
2023/04/21 00:03:46;;;;;;;;;;;9.20;99.90;9.60;98834.00;;;;336119;28;96894;-89
2023/04/21 00:03:58;;;;;;;;;;;9.20;99.90;9.80;98833.00;;;;334353;29;83371;-90
2023/04/21 00:04:12;;;;;;;;;;;9.20;99.90;9.80;98833.00;;;;334595;29;94823;-90
2023/04/21 00:04:24;;;;;;;;;;;9.20;99.90;9.90;98828.00;;;;335582;29;82561;-89
2023/04/21 00:04:37;;;;;;;;;;;9.20;99.90;9.90;98834.00;;;;334812;29;94456;-89
2023/04/21 00:04:50;;;;;;;;;;;9.20;99.90;9.80;98837.00;;;;335592;29;83456;-89
2023/04/21 00:05:02;;;;;;;;;;;9.30;99.90;9.80;98835.00;;;;334462;29;96737;-89
2023/04/21 00:05:14;;;;;;;;;;;9.30;99.90;9.80;98841.00;;;;335621;29;82461;-89
2023/04/21 00:05:26;;;;;;;;;;;9.20;99.90;9.70;98832.00;;;;333305;29;95550;-89
2023/04/21 00:05:41;;;;;;;;;;;9.20;99.90;9.70;98831.00;;;;335558;29;83522;-89
2023/04/21 00:05:57;;;;;;;;;;;9.20;99.90;9.60;98837.00;;;;336148;28;94530;-88
2023/04/21 00:06:09;;;;;;;;;;;9.20;99.90;9.50;98836.00;;;;332861;29;82628;-90
2023/04/21 00:06:22;;;;;;;;;;;9.20;99.90;9.60;98840.00;;;;334816;29;93467;-89
2023/04/21 00:06:35;;;;;;;;;;;9.20;99.90;9.60;98833.00;;;;335346;29;83472;-89
2023/04/21 00:06:47;;;;;;;;;;;9.20;99.90;9.60;98838.00;;;;334826;29;93427;-90
2023/04/21 00:07:03;;;;;;;;;;;9.20;99.90;9.60;98839.00;;;;335491;28;83523;-89
2023/04/21 00:07:15;;;;;;;;;;;9.20;99.90;9.60;98832.00;;;;333460;29;95456;-89
2023/04/21 00:07:29;;;;;;;;;;;9.20;99.90;9.60;98831.00;;;;337869;28;83422;-89
2023/04/21 00:07:41;;;;;;;;;;;9.20;99.90;9.60;98828.00;;;;334848;29;94210;-89
2023/04/21 00:07:53;;;;;;;;;;;9.20;99.90;9.70;98839.00;;;;335606;29;83328;-89
2023/04/21 00:08:05;;;;;;;;;;;9.20;99.90;9.60;98836.00;;;;334578;29;94011;-89
2023/04/21 00:08:17;;;;;;;;;;;9.20;99.90;9.60;98834.00;;;;334334;29;83293;-89
2023/04/21 00:08:29;;;;;;;;;;;9.20;99.90;9.60;98830.00;;;;334798;29;94567;-89
2023/04/21 00:08:40;;;;;;;;;;;9.20;99.90;9.50;98830.00;;;;336955;28;83439;-90
2023/04/21 00:08:52;;;;;;;;;;;9.20;99.90;9.40;98836.00;;;;334913;29;94235;-89
2023/04/21 00:09:04;;;;;;;;;;;9.20;99.90;9.40;98837.00;;;;336696;28;82681;-89
2023/04/21 00:09:17;;;;;;;;;;;9.20;99.90;9.30;98835.00;;;;333490;29;93414;-89
2023/04/21 00:09:29;;;;;;;;;;;9.20;99.90;9.30;98839.00;;;;332968;29;83337;-89
2023/04/21 00:09:41;;;;;;;;;;;9.10;99.90;9.40;98835.00;;;;330954;29;94304;-89
2023/04/21 00:09:53;;;;;;;;;;;9.10;99.90;9.40;98836.00;;;;335483;29;82676;-90
2023/04/21 00:10:08;;;;;;;;;;;9.10;99.90;9.40;98826.00;;;;333474;29;94509;-89
2023/04/21 00:10:20;;;;;;;;;;;9.10;99.90;9.50;98835.00;;;;332828;29;83508;-89
2023/04/21 00:10:31;;;;;;;;;;;9.10;99.90;9.50;98835.00;;;;334545;29;95455;-89
2023/04/21 00:10:43;;;;;;;;;;;9.10;99.90;9.50;98829.00;;;;334112;29;83411;-89
2023/04/21 00:10:55;;;;;;;;;;;9.10;99.90;9.50;98826.00;;;;333527;29;92394;-89
2023/04/21 00:11:07;;;;;;;;;;;9.10;99.90;9.50;98826.00;;;;336635;28;83490;-89
2023/04/21 00:11:19;;;;;;;;;;;9.10;99.90;9.50;98824.00;;;;335924;28;96851;-89
2023/04/21 00:11:30;;;;;;;;;;;9.10;99.90;9.50;98826.00;;;;335332;28;83602;-89
2023/04/21 00:11:42;;;;;;;;;;;9.10;99.90;9.50;98823.00;;;;334951;29;93046;-89
2023/04/21 00:11:55;;;;;;;;;;;9.10;99.90;9.50;98828.00;;;;336839;28;82538;-90
2023/04/21 00:12:07;;;;;;;;;;;9.10;99.90;9.40;98829.00;;;;335846;28;95996;-89
2023/04/21 00:12:18;;;;;;;;;;;9.10;99.90;9.40;98829.00;;;;332864;29;83510;-89
2023/04/21 00:12:30;;;;;;;;;;;9.10;99.90;9.40;98827.00;;;;332258;29;94133;-89
2023/04/21 00:12:42;;;;;;;;;;;9.10;99.90;9.40;98826.00;;;;333062;29;82412;-89
2023/04/21 00:12:54;;;;;;;;;;;9.10;99.90;9.50;98826.00;;;;333514;29;94721;-89
2023/04/21 00:13:06;;;;;;;;;;;9.10;99.90;9.50;98830.00;;;;335452;29;83471;-89
2023/04/21 00:13:17;;;;;;;;;;;9.10;99.90;9.50;98835.00;;;;336092;28;95407;-89
2023/04/21 00:13:29;;;;;;;;;;;9.10;99.90;9.50;98827.00;;;;338241;28;82432;-89
2023/04/21 00:13:41;;;;;;;;;;;9.10;99.90;9.50;98826.00;;;;336252;28;92726;-89
2023/04/21 00:13:54;;;;;;;;;;;9.10;99.90;9.50;98827.00;;;;334239;29;83584;-89
2023/04/21 00:14:06;;;;;;;;;;;9.10;99.90;9.40;98828.00;;;;337442;28;93721;-88
2023/04/21 00:14:18;;;;;;;;;;;9.10;99.90;9.40;98826.00;;;;336638;28;82783;-90
2023/04/21 00:14:30;;;;;;;;;;;9.00;99.90;9.40;98819.00;;;;336133;28;93225;-89
2023/04/21 00:14:42;;;;;;;;;;;9.10;99.90;9.40;98824.00;;;;335501;29;82559;-89
2023/04/21 00:14:54;;;;;;;;;;;9.10;99.90;9.40;98818.00;;;;333496;29;93244;-89
2023/04/21 00:15:06;;;;;;;;;;;9.00;99.90;9.40;98824.00;;;;336982;28;83066;-89
2023/04/21 00:15:18;;;;;;;;;;;9.00;99.90;9.40;98821.00;;;;334851;29;92588;-89
2023/04/21 00:15:30;;;;;;;;;;;9.10;99.90;9.40;98820.00;;;;336877;28;82613;-89
2023/04/21 00:15:42;;;;;;;;;;;9.00;99.90;9.50;98816.00;;;;336167;28;94100;-89
2023/04/21 00:15:53;;;;;;;;;;;9.00;99.90;9.50;98817.00;;;;333052;29;83399;-90
2023/04/21 00:16:06;;;;;;;;;;;9.00;99.90;9.40;98820.00;;;;333502;29;94590;-89
2023/04/21 00:16:18;;;;;;;;;;;9.00;99.90;9.40;98821.00;;;;336797;28;83513;-89
2023/04/21 00:16:30;;;;;;;;;;;9.00;99.90;9.50;98816.00;;;;335848;28;95789;-89
2023/04/21 00:16:42;;;;;;;;;;;9.00;99.90;9.60;98819.00;;;;335679;29;83459;-89
2023/04/21 00:16:54;;;;;;;;;;;9.00;99.90;9.70;98821.00;;;;334789;29;94736;-89
2023/04/21 00:17:05;;;;;;;;;;;9.10;99.90;9.60;98818.00;;;;336890;28;82495;-90
2023/04/21 00:17:17;;;;;;;;;;;9.00;99.90;9.60;98818.00;;;;337352;28;95149;-89
2023/04/21 00:17:29;;;;;;;;;;;9.00;99.90;9.60;98821.00;;;;334221;29;83271;-90
2023/04/21 00:17:41;;;;;;;;;;;9.10;99.90;9.60;98814.00;;;;336082;28;94591;-89
2023/04/21 00:17:53;;;;;;;;;;;9.10;99.90;9.60;98814.00;;;;335615;29;83454;-89
2023/04/21 00:18:05;;;;;;;;;;;9.10;99.90;9.60;98819.00;;;;333514;29;94772;-89
2023/04/21 00:18:17;;;;;;;;;;;9.00;99.90;9.60;98818.00;;;;334217;29;82358;-90
2023/04/21 00:18:29;;;;;;;;;;;9.00;99.90;9.60;98817.00;;;;333378;29;96011;-89
2023/04/21 00:18:41;;;;;;;;;;;9.10;99.90;9.60;98821.00;;;;336783;28;82565;-89
2023/04/21 00:18:53;;;;;;;;;;;9.10;99.90;9.60;98820.00;;;;335823;28;94747;-90
2023/04/21 00:19:06;;;;;;;;;;;9.10;99.90;9.60;98824.00;;;;336950;28;83198;-89
2023/04/21 00:19:18;;;;;;;;;;;9.10;99.90;9.60;98823.00;;;;334802;29;95696;-90
2023/04/21 00:19:31;;;;;;;;;;;9.10;99.90;9.60;98818.00;;;;336816;28;83419;-89
2023/04/21 00:19:43;;;;;;;;;;;9.10;99.90;9.60;98814.00;;;;334747;28;94091;-90
2023/04/21 00:19:55;;;;;;;;;;;9.10;99.90;9.60;98808.00;;;;333019;29;83365;-89
2023/04/21 00:20:09;;;;;;;;;;;9.10;99.90;9.50;98821.00;;;;333588;29;92214;-89
2023/04/21 00:20:22;;;;;;;;;;;9.10;99.90;9.50;98820.00;;;;335536;29;83464;-90
2023/04/21 00:20:34;;;;;;;;;;;9.10;99.90;9.50;98811.00;;;;333459;29;94462;-89
2023/04/21 00:20:47;;;;;;;;;;;9.10;99.90;9.40;98817.00;;;;336708;28;83504;-89
2023/04/21 00:20:58;;;;;;;;;;;9.10;99.90;9.40;98813.00;;;;334649;29;94890;-90
2023/04/21 00:21:10;;;;;;;;;;;9.10;99.90;9.40;98817.00;;;;335429;29;82617;-88
2023/04/21 00:21:22;;;;;;;;;;;9.00;99.90;9.50;98813.00;;;;333183;29;96477;-89
2023/04/21 00:21:34;;;;;;;;;;;9.10;99.90;9.50;98822.00;;;;334288;29;83258;-89
2023/04/21 00:21:46;;;;;;;;;;;9.00;99.90;9.50;98817.00;;;;336168;28;94227;-89
2023/04/21 00:21:59;;;;;;;;;;;9.10;99.90;9.50;98813.00;;;;335538;28;84949;-89
2023/04/21 00:22:13;;;;;;;;;;;9.10;99.90;9.50;98811.00;;;;340027;28;94587;-88
2023/04/21 00:22:25;;;;;;;;;;;9.10;99.90;9.50;98815.00;;;;339620;28;83285;-87
2023/04/21 00:22:37;;;;;;;;;;;9.10;99.90;9.50;98814.00;;;;340121;28;93184;-89
2023/04/21 00:22:49;;;;;;;;;;;9.00;99.90;9.40;98821.00;;;;338282;28;82482;-89
2023/04/21 00:23:02;;;;;;;;;;;9.00;99.90;9.40;98817.00;;;;339909;28;94810;-89
2023/04/21 00:23:14;;;;;;;;;;;9.10;99.90;9.40;98818.00;;;;338157;28;83529;-89
2023/04/21 00:23:26;;;;;;;;;;;9.00;99.90;9.40;98814.00;;;;336614;28;96597;-89
2023/04/21 00:23:37;;;;;;;;;;;9.10;99.90;9.40;98813.00;;;;336837;28;83412;-90
2023/04/21 00:23:49;;;;;;;;;;;9.10;99.90;9.50;98813.00;;;;334797;29;94185;-90
2023/04/21 00:24:01;;;;;;;;;;;9.10;99.90;9.50;98814.00;;;;335404;29;82379;-89
2023/04/21 00:24:13;;;;;;;;;;;9.00;99.90;9.50;98816.00;;;;333459;29;92423;-90
2023/04/21 00:24:25;;;;;;;;;;;9.10;99.90;9.60;98813.00;;;;335317;29;82682;-90
2023/04/21 00:24:36;;;;;;;;;;;9.00;99.90;9.60;98804.00;;;;336101;28;93668;-89
2023/04/21 00:24:48;;;;;;;;;;;9.10;99.90;9.60;98813.00;;;;336814;28;83409;-90
2023/04/21 00:25:01;;;;;;;;;;;9.10;99.90;9.60;98808.00;;;;334927;29;92994;-89
2023/04/21 00:25:13;;;;;;;;;;;9.10;99.90;9.50;98807.00;;;;338260;28;82180;-89
2023/04/21 00:25:25;;;;;;;;;;;9.10;99.90;9.60;98803.00;;;;337339;28;94367;-89
2023/04/21 00:25:37;;;;;;;;;;;9.10;99.90;9.50;98812.00;;;;335531;29;82505;-89
2023/04/21 00:25:49;;;;;;;;;;;9.10;99.90;9.50;98806.00;;;;336090;28;93152;-89
2023/04/21 00:26:01;;;;;;;;;;;9.10;99.90;9.50;98801.00;;;;338245;28;83381;-89
2023/04/21 00:26:13;;;;;;;;;;;9.10;99.90;9.50;98809.00;;;;336087;28;93083;-89
2023/04/21 00:26:25;;;;;;;;;;;9.00;99.90;9.70;98802.00;;;;336899;28;83401;-88
2023/04/21 00:26:37;;;;;;;;;;;9.00;99.90;9.80;98806.00;;;;335814;28;95868;-90
2023/04/21 00:26:49;;;;;;;;;;;9.10;99.90;9.70;98802.00;;;;335636;29;82415;-89
2023/04/21 00:27:02;;;;;;;;;;;9.10;99.90;9.70;98805.00;;;;337216;28;96039;-89
2023/04/21 00:27:14;;;;;;;;;;;9.10;99.90;9.60;98802.00;;;;335617;29;83308;-89
2023/04/21 00:27:26;;;;;;;;;;;9.10;99.90;9.70;98799.00;;;;334765;29;95101;-88
2023/04/21 00:27:38;;;;;;;;;;;9.10;99.90;9.70;98802.00;;;;335492;29;83452;-89
2023/04/21 00:27:50;;;;;;;;;;;9.10;99.90;9.80;98803.00;;;;337513;28;93017;-89
2023/04/21 00:28:02;;;;;;;;;;;9.10;99.90;9.70;98802.00;;;;336849;28;82374;-90
2023/04/21 00:28:14;;;;;;;;;;;9.10;99.90;9.70;98801.00;;;;334555;29;96049;-89
2023/04/21 00:28:26;;;;;;;;;;;9.10;99.90;9.60;98787.00;;;;336710;28;82280;-89
2023/04/21 00:28:38;;;;;;;;;;;9.10;99.90;9.60;98795.00;;;;338744;28;94458;-90
2023/04/21 00:28:50;;;;;;;;;;;9.10;99.90;9.50;98799.00;;;;336670;28;82593;-89
2023/04/21 00:29:02;;;;;;;;;;;9.10;99.90;9.50;98802.00;;;;335967;28;94329;-88
2023/04/21 00:29:14;;;;;;;;;;;9.10;99.90;9.50;98796.00;;;;336648;28;82368;-89
2023/04/21 00:29:26;;;;;;;;;;;9.10;99.90;9.50;98788.00;;;;336009;28;95455;-89
2023/04/21 00:29:39;;;;;;;;;;;9.10;99.90;9.50;98801.00;;;;336659;28;83415;-89
2023/04/21 00:29:51;;;;;;;;;;;9.10;99.90;9.60;98800.00;;;;334611;29;95978;-89
2023/04/21 00:30:03;;;;;;;;;;;9.10;99.90;9.60;98792.00;;;;336921;28;82402;-89
2023/04/21 00:30:15;;;;;;;;;;;9.10;99.90;9.70;98788.00;;;;334749;29;94184;-89
2023/04/21 00:30:27;;;;;;;;;;;9.10;99.90;9.70;98794.00;;;;334318;29;83518;-89
2023/04/21 00:30:39;;;;;;;;;;;9.10;99.90;9.60;98787.00;;;;334785;29;93709;-89
2023/04/21 00:30:53;;;;;;;;;;;9.10;99.90;9.50;98795.00;;;;335343;29;83556;-89
2023/04/21 00:31:05;;;;;;;;;;;9.10;99.90;9.50;98794.00;;;;334893;29;92752;-89
2023/04/21 00:31:16;;;;;;;;;;;9.10;99.90;9.50;98796.00;;;;336928;28;82215;-89
2023/04/21 00:31:28;;;;;;;;;;;9.10;99.90;9.50;98799.00;;;;335952;28;94785;-89
2023/04/21 00:31:40;;;;;;;;;;;9.10;99.90;9.50;98799.00;;;;335556;29;83199;-89
2023/04/21 00:31:52;;;;;;;;;;;9.10;99.90;9.60;98799.00;;;;337123;28;95980;-89
2023/04/21 00:32:07;;;;;;;;;;;9.10;99.90;9.60;98788.00;;;;336931;28;82463;-89
2023/04/21 00:32:19;;;;;;;;;;;9.10;99.90;9.60;98802.00;;;;334686;29;94477;-89
2023/04/21 00:32:30;;;;;;;;;;;9.10;99.90;9.60;98797.00;;;;334290;29;83227;-89
2023/04/21 00:32:42;;;;;;;;;;;9.10;99.90;9.60;98805.00;;;;336091;28;94218;-89
2023/04/21 00:32:54;;;;;;;;;;;9.10;99.90;9.60;98802.00;;;;335398;28;83452;-89
2023/04/21 00:33:06;;;;;;;;;;;9.10;99.90;9.60;98803.00;;;;336050;28;95854;-89
2023/04/21 00:33:18;;;;;;;;;;;9.10;99.90;9.60;98794.00;;;;336875;28;82447;-89
2023/04/21 00:33:30;;;;;;;;;;;9.10;99.90;9.60;98795.00;;;;337193;28;97684;-89
2023/04/21 00:33:42;;;;;;;;;;;9.10;99.90;9.60;98800.00;;;;335491;29;83424;-89
2023/04/21 00:33:54;;;;;;;;;;;9.10;99.90;9.60;98801.00;;;;334732;29;96852;-88
2023/04/21 00:34:06;;;;;;;;;;;9.10;99.90;9.60;98797.00;;;;334277;29;83380;-89
2023/04/21 00:34:18;;;;;;;;;;;9.10;99.90;9.60;98797.00;;;;336208;28;93418;-90
2023/04/21 00:34:30;;;;;;;;;;;9.10;99.90;9.60;98800.00;;;;338215;28;84086;-89
2023/04/21 00:34:41;;;;;;;;;;;9.10;99.90;9.60;98803.00;;;;337186;28;95153;-89
2023/04/21 00:34:53;;;;;;;;;;;9.10;99.90;9.60;98802.00;;;;336836;28;83401;-89
2023/04/21 00:35:05;;;;;;;;;;;9.10;99.90;9.60;98796.00;;;;337463;28;94237;-89
2023/04/21 00:35:17;;;;;;;;;;;9.10;99.90;9.60;98804.00;;;;336640;28;83445;-89
2023/04/21 00:35:29;;;;;;;;;;;9.10;99.90;9.60;98802.00;;;;335985;28;95589;-89
2023/04/21 00:35:41;;;;;;;;;;;9.10;99.90;9.60;98804.00;;;;335641;29;82446;-90
2023/04/21 00:35:53;;;;;;;;;;;9.10;99.90;9.60;98801.00;;;;335937;28;95504;-89
2023/04/21 00:36:05;;;;;;;;;;;9.10;99.90;9.50;98793.00;;;;336837;28;83425;-88
2023/04/21 00:36:17;;;;;;;;;;;9.10;99.90;9.50;98807.00;;;;334810;29;94239;-89
2023/04/21 00:36:29;;;;;;;;;;;9.10;99.90;9.50;98809.00;;;;335632;29;83220;-89
2023/04/21 00:36:41;;;;;;;;;;;9.10;99.90;9.50;98805.00;;;;334541;29;94632;-89
2023/04/21 00:36:52;;;;;;;;;;;9.10;99.90;9.60;98805.00;;;;336762;28;83348;-89
2023/04/21 00:37:04;;;;;;;;;;;9.10;99.90;9.60;98801.00;;;;335932;28;95650;-89
2023/04/21 00:37:16;;;;;;;;;;;9.10;99.90;9.50;98797.00;;;;339525;28;83414;-89
2023/04/21 00:37:28;;;;;;;;;;;9.10;99.90;9.50;98805.00;;;;337424;28;94743;-89
2023/04/21 00:37:40;;;;;;;;;;;9.10;99.90;9.50;98804.00;;;;334081;29;82622;-89
2023/04/21 00:37:52;;;;;;;;;;;9.10;99.90;9.50;98799.00;;;;336028;28;94758;-89
2023/04/21 00:38:04;;;;;;;;;;;9.10;99.90;9.50;98802.00;;;;336658;28;83500;-89
2023/04/21 00:38:16;;;;;;;;;;;9.10;99.90;9.50;98797.00;;;;333583;29;93044;-89
2023/04/21 00:38:27;;;;;;;;;;;9.10;99.90;9.50;98805.00;;;;335643;29;83239;-90
2023/04/21 00:38:39;;;;;;;;;;;9.10;99.90;9.50;98805.00;;;;337400;28;94622;-89
2023/04/21 00:38:51;;;;;;;;;;;9.10;99.90;9.50;98803.00;;;;338128;28;83315;-89
2023/04/21 00:39:03;;;;;;;;;;;9.10;99.90;9.50;98800.00;;;;336143;28;94165;-89
2023/04/21 00:39:14;;;;;;;;;;;9.10;99.90;9.50;98804.00;;;;334376;29;82392;-89
2023/04/21 00:39:26;;;;;;;;;;;9.10;99.90;9.50;98805.00;;;;335808;28;95478;-89
2023/04/21 00:39:38;;;;;;;;;;;9.10;99.90;9.50;98803.00;;;;337956;28;83587;-89
2023/04/21 00:39:50;;;;;;;;;;;9.10;99.90;9.50;98798.00;;;;334799;29;94488;-89
2023/04/21 00:40:03;;;;;;;;;;;9.10;99.90;9.50;98804.00;;;;335636;29;82400;-89
2023/04/21 00:40:15;;;;;;;;;;;9.10;99.90;9.60;98795.00;;;;334773;28;94013;-89
2023/04/21 00:40:27;;;;;;;;;;;9.10;99.90;9.60;98796.00;;;;334388;29;82416;-89
2023/04/21 00:40:38;;;;;;;;;;;9.10;99.90;9.60;98799.00;;;;334724;29;95592;-89
2023/04/21 00:40:50;;;;;;;;;;;9.10;99.90;9.50;98791.00;;;;335511;29;83347;-89
2023/04/21 00:41:02;;;;;;;;;;;9.10;99.90;9.60;98795.00;;;;334765;29;96569;-89
2023/04/21 00:41:14;;;;;;;;;;;9.10;99.90;9.60;98799.00;;;;338257;28;83273;-89
2023/04/21 00:41:27;;;;;;;;;;;9.10;99.90;9.60;98798.00;;;;336009;28;94295;-89
2023/04/21 00:41:39;;;;;;;;;;;9.10;99.90;9.60;98803.00;;;;336626;28;83409;-89
2023/04/21 00:41:51;;;;;;;;;;;9.10;99.90;9.50;98796.00;;;;334716;29;94649;-89
2023/04/21 00:42:03;;;;;;;;;;;9.10;99.90;9.60;98803.00;;;;335564;29;83292;-89
2023/04/21 00:42:15;;;;;;;;;;;9.10;99.90;9.60;98797.00;;;;333466;29;94145;-89
2023/04/21 00:42:27;;;;;;;;;;;9.10;99.90;9.70;98796.00;;;;335536;29;82477;-89
2023/04/21 00:42:39;;;;;;;;;;;9.10;99.90;9.70;98797.00;;;;334822;29;92785;-89
2023/04/21 00:42:51;;;;;;;;;;;9.10;99.90;9.60;98791.00;;;;334265;29;83288;-89
2023/04/21 00:43:06;;;;;;;;;;;9.10;99.90;9.70;98799.00;;;;336100;28;94154;-89
2023/04/21 00:43:18;;;;;;;;;;;9.10;99.90;9.70;98788.00;;;;336883;28;82390;-89
2023/04/21 00:43:30;;;;;;;;;;;9.10;99.90;9.70;98783.00;;;;333399;29;93659;-90
2023/04/21 00:44:05;;;;;;;;;;;9.10;99.90;9.60;98797.00;;;;335561;29;83461;-89
2023/04/21 00:44:17;;;;;;;;;;;9.10;99.90;9.60;98796.00;;;;334819;29;93259;-89
2023/04/21 00:44:29;;;;;;;;;;;9.10;99.90;9.60;98795.00;;;;335655;29;82405;-89
2023/04/21 00:44:40;;;;;;;;;;;9.10;99.90;9.60;98797.00;;;;337378;28;96644;-89
2023/04/21 00:44:52;;;;;;;;;;;9.10;99.90;9.60;98783.00;;;;336696;28;83706;-89
2023/04/21 00:45:05;;;;;;;;;;;9.10;99.90;9.60;98788.00;;;;332212;29;96079;-89
2023/04/21 00:45:17;;;;;;;;;;;9.10;99.90;9.60;98782.00;;;;336913;28;82470;-89
2023/04/21 00:45:29;;;;;;;;;;;9.10;99.90;9.50;98791.00;;;;336096;28;93523;-89
2023/04/21 00:45:40;;;;;;;;;;;9.10;99.90;9.50;98791.00;;;;335569;29;83368;-89
2023/04/21 00:45:52;;;;;;;;;;;9.10;99.90;9.50;98784.00;;;;334459;29;95121;-89
2023/04/21 00:46:04;;;;;;;;;;;9.10;99.90;9.50;98791.00;;;;338164;28;82484;-89
2023/04/21 00:46:16;;;;;;;;;;;9.10;99.90;9.50;98781.00;;;;336088;28;93447;-89
2023/04/21 00:46:28;;;;;;;;;;;9.10;99.90;9.60;98798.00;;;;338229;28;83328;-88
2023/04/21 00:46:42;;;;;;;;;;;9.10;99.90;9.50;98786.00;;;;334370;29;93902;-89
2023/04/21 00:46:54;;;;;;;;;;;9.10;99.90;9.60;98783.00;;;;336840;28;82451;-90
2023/04/21 00:47:06;;;;;;;;;;;9.10;99.90;9.50;98787.00;;;;337482;28;92901;-90
2023/04/21 00:47:18;;;;;;;;;;;9.10;99.90;9.50;98788.00;;;;339510;28;82515;-89
2023/04/21 00:47:30;;;;;;;;;;;9.10;99.90;9.50;98792.00;;;;337379;28;94423;-89
2023/04/21 00:47:42;;;;;;;;;;;9.10;99.90;9.50;98783.00;;;;336828;28;82694;-89
2023/04/21 00:47:54;;;;;;;;;;;9.10;99.90;9.50;98785.00;;;;334548;28;95510;-89
2023/04/21 00:48:06;;;;;;;;;;;9.10;99.90;9.60;98783.00;;;;336241;28;82577;-89
2023/04/21 00:48:17;;;;;;;;;;;9.10;99.90;9.60;98781.00;;;;337152;28;94828;-89
2023/04/21 00:48:29;;;;;;;;;;;9.10;99.90;9.70;98780.00;;;;335547;29;83161;-89
2023/04/21 00:48:41;;;;;;;;;;;9.10;99.90;9.70;98779.00;;;;336085;28;94549;-89
2023/04/21 00:48:53;;;;;;;;;;;9.10;99.90;9.70;98785.00;;;;336781;28;83379;-89
2023/04/21 00:49:05;;;;;;;;;;;9.10;99.90;9.70;98785.00;;;;335821;28;95832;-89
2023/04/21 00:49:17;;;;;;;;;;;9.10;99.90;9.70;98778.00;;;;335372;28;83528;-89
2023/04/21 00:49:29;;;;;;;;;;;9.10;99.90;9.60;98779.00;;;;336071;28;94632;-89
2023/04/21 00:49:41;;;;;;;;;;;9.10;99.90;9.60;98788.00;;;;334229;29;83938;-89
2023/04/21 00:49:53;;;;;;;;;;;9.10;99.90;9.70;98782.00;;;;334688;29;94972;-90
2023/04/21 00:50:05;;;;;;;;;;;9.10;99.90;9.70;98775.00;;;;336911;28;82423;-88
2023/04/21 00:50:17;;;;;;;;;;;9.10;99.90;9.80;98783.00;;;;337398;28;93433;-89
2023/04/21 00:50:29;;;;;;;;;;;9.10;99.90;9.80;98782.00;;;;338237;28;83393;-90
2023/04/21 00:50:41;;;;;;;;;;;9.10;99.90;9.80;98777.00;;;;336129;28;93981;-89
2023/04/21 00:50:53;;;;;;;;;;;9.10;99.90;9.80;98784.00;;;;336806;28;83503;-89
2023/04/21 00:51:05;;;;;;;;;;;9.10;99.90;9.70;98778.00;;;;336057;28;96107;-89
2023/04/21 00:51:17;;;;;;;;;;;9.20;99.90;9.60;98766.00;;;;338033;28;83652;-89
2023/04/21 00:51:29;;;;;;;;;;;9.20;99.90;9.60;98780.00;;;;336109;28;94229;-89
2023/04/21 00:51:40;;;;;;;;;;;9.20;99.90;9.60;98776.00;;;;338116;28;83411;-88
2023/04/21 00:51:52;;;;;;;;;;;9.10;99.90;9.50;98782.00;;;;337073;28;96390;-88
2023/04/21 00:52:05;;;;;;;;;;;9.10;99.90;9.50;98775.00;;;;336855;28;83391;-88
2023/04/21 00:52:17;;;;;;;;;;;9.10;99.90;9.50;98773.00;;;;334807;29;94345;-90
2023/04/21 00:52:30;;;;;;;;;;;9.10;99.90;9.40;98772.00;;;;338244;28;83299;-89
2023/04/21 00:52:42;;;;;;;;;;;9.10;99.90;9.40;98777.00;;;;337357;28;94287;-89
2023/04/21 00:52:54;;;;;;;;;;;9.10;99.90;9.40;98779.00;;;;335596;28;83457;-90
2023/04/21 00:53:06;;;;;;;;;;;9.10;99.90;9.50;98776.00;;;;337436;28;93507;-90
2023/04/21 00:53:18;;;;;;;;;;;9.00;99.90;9.50;98780.00;;;;336904;28;83300;-89
2023/04/21 00:53:30;;;;;;;;;;;9.10;99.90;9.50;98785.00;;;;337399;28;93012;-89
2023/04/21 00:53:43;;;;;;;;;;;9.10;99.90;9.40;98788.00;;;;336739;28;83534;-89
2023/04/21 00:53:54;;;;;;;;;;;9.00;99.90;9.30;98781.00;;;;334750;29;94930;-90
2023/04/21 00:54:07;;;;;;;;;;;9.10;99.90;9.30;98784.00;;;;336773;28;83141;-89
2023/04/21 00:54:19;;;;;;;;;;;9.00;99.90;9.30;98784.00;;;;334863;29;94489;-89
2023/04/21 00:54:31;;;;;;;;;;;9.00;99.90;9.40;98782.00;;;;334174;28;82559;-89
2023/04/21 00:54:43;;;;;;;;;;;9.00;99.90;9.40;98778.00;;;;335816;28;94030;-89
2023/04/21 00:54:55;;;;;;;;;;;9.00;99.90;9.40;98779.00;;;;335306;29;83544;-90
2023/04/21 00:55:07;;;;;;;;;;;9.00;99.90;9.40;98780.00;;;;336098;28;93456;-89
2023/04/21 00:55:19;;;;;;;;;;;9.00;99.90;9.40;98780.00;;;;336833;28;83329;-89
2023/04/21 00:55:31;;;;;;;;;;;9.00;99.90;9.40;98773.00;;;;334763;29;95516;-89
2023/04/21 00:55:42;;;;;;;;;;;9.00;99.90;9.40;98782.00;;;;335603;29;82408;-89
2023/04/21 00:55:54;;;;;;;;;;;9.00;99.90;9.30;98784.00;;;;335727;28;96584;-89
2023/04/21 00:56:06;;;;;;;;;;;9.00;99.90;9.30;98791.00;;;;336786;28;83472;-89
2023/04/21 00:56:18;;;;;;;;;;;9.00;99.90;9.40;98782.00;;;;334605;29;94299;-89
2023/04/21 00:56:31;;;;;;;;;;;9.00;99.90;9.40;98787.00;;;;337718;28;83405;-89
2023/04/21 00:56:43;;;;;;;;;;;9.00;99.90;9.50;98785.00;;;;335769;28;95436;-89
2023/04/21 00:56:57;;;;;;;;;;;9.00;99.90;9.50;98778.00;;;;336770;28;83485;-89
2023/04/21 00:57:11;;;;;;;;;;;9.00;99.90;9.50;98775.00;;;;335845;28;95884;-89
2023/04/21 00:57:23;;;;;;;;;;;9.00;99.90;9.60;98774.00;;;;335561;29;83331;-89
2023/04/21 00:57:36;;;;;;;;;;;9.00;99.90;9.50;98773.00;;;;337317;28;94599;-89
2023/04/21 00:57:50;;;;;;;;;;;9.00;99.90;9.50;98784.00;;;;336872;28;83500;-89
2023/04/21 00:58:02;;;;;;;;;;;9.00;99.90;9.50;98778.00;;;;334747;29;94143;-90
2023/04/21 00:58:14;;;;;;;;;;;9.00;99.90;9.50;98784.00;;;;337969;28;83449;-89
2023/04/21 00:58:25;;;;;;;;;;;9.00;99.90;9.40;98778.00;;;;334839;29;93897;-89
2023/04/21 00:58:39;;;;;;;;;;;9.00;99.90;9.40;98784.00;;;;334235;29;83476;-89
2023/04/21 00:58:51;;;;;;;;;;;9.00;99.90;9.40;98782.00;;;;335874;28;94264;-89
2023/04/21 00:59:03;;;;;;;;;;;9.00;99.90;9.40;98769.00;;;;336866;28;83339;-90
2023/04/21 00:59:14;;;;;;;;;;;9.00;99.90;9.40;98779.00;;;;336105;28;94166;-90
2023/04/21 00:59:26;;;;;;;;;;;9.00;99.90;9.40;98777.00;;;;335530;29;82196;-89
2023/04/21 00:59:38;;;;;;;;;;;9.00;99.90;9.40;98777.00;;;;334718;28;94647;-88
2023/04/21 00:59:50;;;;;;;;;;;9.00;99.90;9.40;98777.00;;;;335543;29;82477;-89
2023/04/21 01:00:04;;;;;;;;;;;9.00;99.90;9.40;98777.00;;;;335772;28;96571;-89
2023/04/21 01:00:16;;;;;;;;;;;9.00;99.90;9.30;98777.00;;;;336763;28;83364;-89
2023/04/21 01:00:28;;;;;;;;;;;9.00;99.90;9.20;98777.00;;;;333602;29;93411;-89
2023/04/21 01:00:41;;;;;;;;;;;8.90;99.90;9.20;98779.00;;;;335637;29;82419;-89
2023/04/21 01:00:53;;;;;;;;;;;9.00;99.90;9.20;98778.00;;;;334603;29;94659;-89
2023/04/21 01:01:05;;;;;;;;;;;9.00;99.90;9.40;98771.00;;;;335461;29;83459;-89
2023/04/21 01:01:17;;;;;;;;;;;8.90;99.90;9.40;98773.00;;;;334776;29;93410;-89
2023/04/21 01:01:30;;;;;;;;;;;9.00;99.90;9.40;98776.00;;;;335618;29;83307;-89
2023/04/21 01:01:43;;;;;;;;;;;9.00;99.90;9.40;98780.00;;;;333541;29;94144;-89
2023/04/21 01:01:55;;;;;;;;;;;9.00;99.90;9.40;98771.00;;;;335581;29;82462;-89
2023/04/21 01:02:07;;;;;;;;;;;9.00;99.90;9.30;98787.00;;;;335934;28;96398;-89
2023/04/21 01:02:19;;;;;;;;;;;9.00;99.90;9.30;98776.00;;;;336928;28;83430;-89